createdAt,value
2018-01-03T00:00:11.906Z,973.30
2018-01-03T00:01:11.868Z,973.32
2018-01-03T00:02:11.830Z,973.19
2018-01-03T00:03:11.849Z,973.22
2018-01-03T00:04:11.722Z,973.17
2018-01-03T00:05:11.760Z,973.07
2018-01-03T00:06:11.659Z,973.01
2018-01-03T00:07:11.627Z,972.98
2018-01-03T00:08:11.566Z,972.96
2018-01-03T00:09:11.512Z,972.93
2018-01-03T00:10:11.482Z,972.91
2018-01-03T00:11:11.433Z,972.91
2018-01-03T00:12:11.362Z,972.83
2018-01-03T00:13:11.351Z,972.78
2018-01-03T00:14:11.302Z,972.72
2018-01-03T00:15:11.268Z,972.70
2018-01-03T00:16:11.200Z,972.66
2018-01-03T00:17:11.150Z,972.64
2018-01-03T00:18:11.108Z,972.61
2018-01-03T00:19:11.077Z,972.63
2018-01-03T00:20:11.027Z,972.65
2018-01-03T00:21:10.992Z,972.62
2018-01-03T00:22:10.942Z,972.53
2018-01-03T00:23:10.907Z,972.52
2018-01-03T00:24:10.872Z,972.50
2018-01-03T00:25:10.821Z,972.45
2018-01-03T00:26:10.772Z,972.42
2018-01-03T00:27:10.739Z,972.44
2018-01-03T00:28:10.670Z,972.41
2018-01-03T00:29:10.639Z,972.32
2018-01-03T00:30:10.584Z,972.34
2018-01-03T00:31:10.596Z,972.29
2018-01-03T00:32:10.495Z,972.25
2018-01-03T00:33:10.445Z,972.26
2018-01-03T00:34:10.407Z,972.22
2018-01-03T00:35:10.354Z,972.20
2018-01-03T00:36:10.339Z,972.15
2018-01-03T00:37:10.279Z,972.11
2018-01-03T00:38:10.227Z,972.08
2018-01-03T00:39:10.184Z,972.00
2018-01-03T00:40:10.145Z,971.93
2018-01-03T00:41:10.110Z,971.94
2018-01-03T00:42:10.063Z,971.86
2018-01-03T00:43:10.031Z,971.82
2018-01-03T00:44:09.950Z,971.83
2018-01-03T00:45:09.918Z,971.82
2018-01-03T00:46:09.880Z,971.85
2018-01-03T00:47:09.836Z,971.80
2018-01-03T00:48:09.787Z,971.81
2018-01-03T00:49:09.732Z,971.77
2018-01-03T00:50:09.702Z,971.71
2018-01-03T00:51:09.641Z,971.73
2018-01-03T00:52:09.607Z,971.67
2018-01-03T00:53:09.583Z,971.64
2018-01-03T00:54:09.519Z,971.61
2018-01-03T00:55:09.490Z,971.60
2018-01-03T00:56:09.423Z,971.51
2018-01-03T00:57:09.407Z,971.56
2018-01-03T00:58:09.334Z,971.49
2018-01-03T00:59:09.309Z,971.48
2018-01-03T01:00:09.279Z,971.50
2018-01-03T01:01:09.209Z,971.46
2018-01-03T01:02:09.172Z,971.42
2018-01-03T01:03:09.118Z,971.37
2018-01-03T01:04:09.080Z,971.42
2018-01-03T01:05:09.029Z,971.40
2018-01-03T01:06:08.984Z,971.26
2018-01-03T01:07:08.954Z,971.35
2018-01-03T01:08:08.920Z,971.27
2018-01-03T01:09:08.855Z,971.31
2018-01-03T01:10:08.825Z,971.31
2018-01-03T01:11:08.823Z,971.32
2018-01-03T01:12:08.714Z,971.30
2018-01-03T01:13:08.709Z,971.23
2018-01-03T01:14:08.626Z,971.29
2018-01-03T01:15:08.599Z,971.28
2018-01-03T01:16:08.541Z,971.25
2018-01-03T01:17:08.544Z,971.23
2018-01-03T01:18:08.452Z,971.21
2018-01-03T01:19:08.407Z,971.21
2018-01-03T01:20:08.378Z,971.17
2018-01-03T01:21:08.324Z,971.14
2018-01-03T01:22:08.269Z,971.14
2018-01-03T01:23:08.227Z,971.06
2018-01-03T01:24:08.190Z,971.06
2018-01-03T01:25:08.145Z,970.93
2018-01-03T01:26:08.090Z,970.98
2018-01-03T01:27:08.071Z,970.91
2018-01-03T01:28:08.035Z,970.86
2018-01-03T01:29:07.992Z,970.88
2018-01-03T01:30:07.917Z,970.85
2018-01-03T01:31:07.889Z,970.80
2018-01-03T01:32:07.833Z,970.79
2018-01-03T01:33:07.815Z,970.76
2018-01-03T01:34:07.742Z,970.71
2018-01-03T01:35:07.682Z,970.67
2018-01-03T01:36:07.670Z,970.58
2018-01-03T01:37:07.614Z,970.64
2018-01-03T01:38:07.561Z,970.46
2018-01-03T01:39:07.530Z,970.55
2018-01-03T01:40:07.499Z,970.46
2018-01-03T01:41:07.431Z,970.49
2018-01-03T01:42:07.432Z,970.40
2018-01-03T01:43:07.384Z,970.40
2018-01-03T01:44:07.311Z,970.33
2018-01-03T01:45:07.258Z,970.32
2018-01-03T01:46:07.210Z,970.20
2018-01-03T01:47:07.169Z,970.04
2018-01-03T01:48:07.133Z,970.08
2018-01-03T01:49:07.073Z,970.04
2018-01-03T01:50:07.029Z,969.97
2018-01-03T01:51:07.010Z,969.95
2018-01-03T01:52:06.945Z,969.91
2018-01-03T01:53:06.928Z,969.83
2018-01-03T01:54:06.866Z,969.81
2018-01-03T01:55:06.822Z,969.67
2018-01-03T01:56:06.780Z,969.74
2018-01-03T01:57:06.730Z,969.65
2018-01-03T01:58:06.685Z,969.64
2018-01-03T01:59:06.633Z,969.59
2018-01-03T02:00:06.590Z,969.61
2018-01-03T02:01:06.545Z,969.55
2018-01-03T02:02:06.506Z,969.44
2018-01-03T02:03:06.458Z,969.50
2018-01-03T02:04:06.413Z,969.45
2018-01-03T02:05:06.372Z,969.32
2018-01-03T02:06:06.328Z,969.34
2018-01-03T02:07:06.296Z,969.28
2018-01-03T02:08:06.238Z,969.24
2018-01-03T02:09:06.194Z,969.21
2018-01-03T02:10:06.151Z,969.14
2018-01-03T02:11:06.111Z,969.27
2018-01-03T02:12:06.060Z,969.22
2018-01-03T02:13:06.027Z,969.24
2018-01-03T02:14:05.981Z,969.18
2018-01-03T02:15:05.930Z,969.18
2018-01-03T02:16:05.881Z,969.09
2018-01-03T02:17:05.862Z,969.03
2018-01-03T02:18:05.823Z,968.99
2018-01-03T02:19:05.768Z,968.93
2018-01-03T02:20:05.719Z,968.94
2018-01-03T02:21:05.669Z,968.74
2018-01-03T02:22:05.614Z,968.77
2018-01-03T02:23:05.581Z,968.78
2018-01-03T02:24:05.529Z,968.77
2018-01-03T02:25:05.500Z,968.62
2018-01-03T02:26:05.440Z,968.72
2018-01-03T02:27:05.404Z,968.67
2018-01-03T02:28:05.361Z,968.62
2018-01-03T02:29:05.321Z,968.60
2018-01-03T02:30:05.278Z,968.55
2018-01-03T02:31:05.234Z,968.58
2018-01-03T02:32:05.182Z,968.55
2018-01-03T02:33:05.143Z,968.49
2018-01-03T02:34:05.095Z,968.45
2018-01-03T02:35:05.055Z,968.45
2018-01-03T02:36:05.005Z,968.42
2018-01-03T02:37:04.961Z,968.35
2018-01-03T02:38:04.981Z,968.31
2018-01-03T02:39:04.904Z,968.21
2018-01-03T02:40:04.827Z,968.17
2018-01-03T02:41:04.795Z,968.08
2018-01-03T02:42:04.738Z,968.05
2018-01-03T02:43:04.721Z,968.08
2018-01-03T02:44:04.679Z,967.99
2018-01-03T02:45:04.651Z,968.04
2018-01-03T02:46:04.573Z,967.99
2018-01-03T02:47:04.545Z,967.95
2018-01-03T02:48:04.492Z,967.90
2018-01-03T02:49:04.457Z,967.93
2018-01-03T02:50:04.383Z,967.79
2018-01-03T02:51:04.343Z,967.75
2018-01-03T02:52:04.298Z,967.68
2018-01-03T02:53:04.260Z,967.71
2018-01-03T02:54:04.222Z,967.67
2018-01-03T02:55:04.177Z,967.61
2018-01-03T02:56:04.113Z,967.55
2018-01-03T02:57:04.084Z,967.59
2018-01-03T02:58:04.060Z,967.63
2018-01-03T02:59:04.001Z,967.57
2018-01-03T03:00:03.981Z,967.56
2018-01-03T03:01:03.905Z,967.56
2018-01-03T03:02:03.861Z,967.58
2018-01-03T03:03:03.804Z,967.52
2018-01-03T03:04:03.773Z,967.50
2018-01-03T03:05:03.711Z,967.52
2018-01-03T03:06:03.703Z,967.53
2018-01-03T03:07:03.638Z,967.44
2018-01-03T03:08:03.597Z,967.43
2018-01-03T03:09:03.559Z,967.48
2018-01-03T03:10:03.519Z,967.47
2018-01-03T03:11:03.474Z,967.35
2018-01-03T03:12:03.426Z,967.39
2018-01-03T03:13:03.378Z,967.34
2018-01-03T03:14:03.346Z,967.30
2018-01-03T03:15:03.311Z,967.25
2018-01-03T03:16:03.244Z,967.07
2018-01-03T03:17:03.189Z,967.02
2018-01-03T03:18:03.156Z,966.98
2018-01-03T03:19:03.116Z,966.89
2018-01-03T03:20:03.054Z,966.78
2018-01-03T03:21:03.014Z,966.60
2018-01-03T03:22:02.974Z,966.59
2018-01-03T03:23:02.936Z,966.46
2018-01-03T03:24:02.896Z,966.37
2018-01-03T03:25:02.847Z,966.35
2018-01-03T03:26:02.818Z,966.30
2018-01-03T03:27:02.768Z,966.27
2018-01-03T03:28:02.715Z,966.26
2018-01-03T03:29:02.664Z,966.15
2018-01-03T03:30:02.649Z,966.09
2018-01-03T03:31:02.569Z,965.98
2018-01-03T03:32:02.534Z,965.85
2018-01-03T03:33:02.482Z,965.79
2018-01-03T03:34:02.442Z,965.78
2018-01-03T03:35:02.401Z,965.81
2018-01-03T03:36:02.356Z,965.80
2018-01-03T03:37:02.348Z,965.83
2018-01-03T03:38:02.293Z,965.73
2018-01-03T03:39:02.220Z,965.75
2018-01-03T03:40:02.179Z,965.69
2018-01-03T03:41:02.140Z,965.72
2018-01-03T03:42:02.096Z,965.64
2018-01-03T03:43:02.064Z,965.74
2018-01-03T03:44:01.995Z,965.81
2018-01-03T03:45:01.964Z,965.73
2018-01-03T03:46:01.898Z,965.66
2018-01-03T03:47:01.874Z,965.61
2018-01-03T03:48:01.819Z,965.43
2018-01-03T03:49:01.793Z,965.15
2018-01-03T03:50:01.775Z,965.06
2018-01-03T03:51:01.689Z,965.04
2018-01-03T03:52:01.644Z,965.00
2018-01-03T03:53:01.599Z,964.96
2018-01-03T03:54:01.545Z,964.86
2018-01-03T03:55:01.512Z,964.78
2018-01-03T03:56:01.479Z,964.68
2018-01-03T03:57:01.427Z,964.56
2018-01-03T03:58:01.382Z,964.45
2018-01-03T03:59:01.335Z,964.26
2018-01-03T04:00:01.298Z,964.04
2018-01-03T04:01:01.235Z,964.04
2018-01-03T04:02:01.183Z,963.98
2018-01-03T04:03:01.138Z,963.94
2018-01-03T04:04:01.126Z,963.82
2018-01-03T04:05:01.069Z,963.70
2018-01-03T04:06:01.029Z,963.49
2018-01-03T04:07:00.968Z,963.36
2018-01-03T04:08:00.943Z,963.37
2018-01-03T04:09:00.906Z,963.30
2018-01-03T04:10:00.879Z,963.29
2018-01-03T04:11:00.798Z,963.24
2018-01-03T04:12:00.750Z,963.24
2018-01-03T04:13:00.714Z,963.26
2018-01-03T04:14:00.654Z,963.19
2018-01-03T04:15:00.620Z,963.16
2018-01-03T04:16:00.592Z,963.17
2018-01-03T04:17:00.517Z,963.17
2018-01-03T04:18:00.466Z,963.04
2018-01-03T04:19:00.431Z,963.01
2018-01-03T04:20:00.471Z,963.06
2018-01-03T04:21:00.343Z,962.89
2018-01-03T04:22:00.289Z,962.91
2018-01-03T04:23:00.235Z,962.84
2018-01-03T04:24:00.245Z,963.01
2018-01-03T04:25:00.162Z,962.81
2018-01-03T04:26:00.162Z,962.75
2018-01-03T04:27:00.075Z,962.68
2018-01-03T04:28:00.036Z,962.60
2018-01-03T04:28:59.991Z,962.59
2018-01-03T04:29:59.964Z,962.64
2018-01-03T04:30:59.901Z,962.57
2018-01-03T04:31:59.861Z,962.52
2018-01-03T04:32:59.795Z,962.39
2018-01-03T04:33:59.762Z,962.28
2018-01-03T04:34:59.714Z,962.41
2018-01-03T04:35:59.683Z,962.37
2018-01-03T04:36:59.634Z,962.42
2018-01-03T04:37:59.614Z,962.48
2018-01-03T04:38:59.541Z,962.40
2018-01-03T04:39:59.510Z,962.24
2018-01-03T04:40:59.442Z,962.17
2018-01-03T04:41:59.417Z,962.25
2018-01-03T04:42:59.372Z,962.31
2018-01-03T04:43:59.329Z,962.16
2018-01-03T04:44:59.470Z,962.13
2018-01-03T04:45:59.226Z,962.19
2018-01-03T04:46:59.192Z,962.14
2018-01-03T04:47:59.147Z,962.05
2018-01-03T04:48:59.090Z,961.98
2018-01-03T04:49:59.042Z,962.05
2018-01-03T04:50:59.011Z,962.23
2018-01-03T04:51:58.969Z,962.30
2018-01-03T04:52:58.925Z,962.21
2018-01-03T04:53:58.882Z,962.24
2018-01-03T04:54:58.832Z,962.21
2018-01-03T04:55:58.800Z,962.20
2018-01-03T04:56:58.734Z,962.13
2018-01-03T04:57:58.706Z,962.04
2018-01-03T04:58:58.668Z,961.81
2018-01-03T04:59:58.604Z,961.79
2018-01-03T05:00:58.579Z,961.78
2018-01-03T05:01:58.502Z,961.78
2018-01-03T05:02:58.463Z,961.77
2018-01-03T05:03:58.420Z,961.63
2018-01-03T05:04:58.373Z,961.55
2018-01-03T05:05:58.356Z,961.49
2018-01-03T05:06:58.309Z,961.50
2018-01-03T05:07:58.279Z,961.48
2018-01-03T05:08:58.203Z,961.40
2018-01-03T05:09:58.153Z,961.31
2018-01-03T05:10:58.112Z,961.24
2018-01-03T05:11:58.097Z,961.08
2018-01-03T05:12:58.024Z,961.01
2018-01-03T05:13:58.006Z,960.89
2018-01-03T05:14:57.953Z,960.80
2018-01-03T05:15:57.890Z,960.64
2018-01-03T05:16:57.878Z,960.61
2018-01-03T05:17:57.814Z,960.52
2018-01-03T05:18:57.768Z,960.29
2018-01-03T05:19:57.723Z,960.23
2018-01-03T05:20:57.678Z,960.15
2018-01-03T05:21:57.629Z,960.02
2018-01-03T05:22:57.588Z,959.92
2018-01-03T05:23:57.526Z,959.96
2018-01-03T05:24:57.545Z,959.97
2018-01-03T05:25:57.433Z,959.96
2018-01-03T05:26:57.424Z,959.84
2018-01-03T05:27:57.370Z,959.80
2018-01-03T05:28:57.301Z,959.73
2018-01-03T05:29:57.262Z,959.53
2018-01-03T05:30:57.237Z,959.50
2018-01-03T05:31:57.193Z,959.34
2018-01-03T05:32:57.147Z,959.19
2018-01-03T05:33:57.100Z,959.04
2018-01-03T05:34:57.047Z,958.97
2018-01-03T05:35:57.005Z,958.97
2018-01-03T05:36:56.964Z,959.01
2018-01-03T05:37:56.906Z,958.95
2018-01-03T05:38:56.879Z,958.76
2018-01-03T05:39:56.842Z,958.83
2018-01-03T05:40:56.791Z,958.91
2018-01-03T05:41:56.727Z,958.78
2018-01-03T05:42:56.688Z,958.84
2018-01-03T05:43:56.673Z,958.84
2018-01-03T05:44:56.596Z,958.87
2018-01-03T05:45:56.559Z,958.85
2018-01-03T05:46:56.519Z,958.92
2018-01-03T05:47:56.460Z,958.84
2018-01-03T05:48:56.441Z,958.80
2018-01-03T05:49:56.409Z,958.75
2018-01-03T05:50:56.328Z,958.76
2018-01-03T05:51:56.301Z,958.69
2018-01-03T05:52:56.264Z,958.63
2018-01-03T05:53:56.199Z,958.61
2018-01-03T05:54:56.169Z,958.46
2018-01-03T05:55:56.117Z,958.32
2018-01-03T05:56:56.062Z,958.33
2018-01-03T05:57:56.096Z,958.16
2018-01-03T05:58:55.976Z,958.05
2018-01-03T05:59:55.943Z,957.98
2018-01-03T06:00:55.894Z,957.98
2018-01-03T06:01:55.847Z,958.05
2018-01-03T06:02:55.802Z,957.95
2018-01-03T06:03:55.770Z,957.85
2018-01-03T06:04:55.713Z,957.79
2018-01-03T06:05:55.675Z,957.86
2018-01-03T06:06:55.624Z,957.95
2018-01-03T06:07:55.580Z,958.10
2018-01-03T06:08:55.535Z,958.08
2018-01-03T06:09:55.501Z,957.83
2018-01-03T06:10:55.463Z,957.63
2018-01-03T06:11:55.417Z,957.74
2018-01-03T06:12:55.385Z,957.98
2018-01-03T06:13:55.339Z,957.84
2018-01-03T06:14:55.268Z,957.78
2018-01-03T06:15:55.231Z,957.67
2018-01-03T06:16:55.226Z,957.80
2018-01-03T06:17:55.150Z,957.70
2018-01-03T06:18:55.129Z,957.55
2018-01-03T06:19:55.106Z,957.51
2018-01-03T06:20:55.056Z,957.45
2018-01-03T06:21:54.977Z,957.24
2018-01-03T06:22:54.950Z,957.32
2018-01-03T06:23:54.877Z,957.29
2018-01-03T06:24:54.847Z,957.13
2018-01-03T06:25:54.811Z,957.26
2018-01-03T06:26:54.769Z,957.25
2018-01-03T06:27:54.721Z,957.07
2018-01-03T06:28:54.703Z,957.00
2018-01-03T06:29:54.615Z,956.96
2018-01-03T06:30:54.593Z,957.08
2018-01-03T06:31:54.539Z,957.04
2018-01-03T06:32:54.520Z,956.98
2018-01-03T06:33:54.452Z,956.83
2018-01-03T06:34:54.397Z,956.77
2018-01-03T06:35:54.356Z,956.64
2018-01-03T06:36:54.309Z,956.67
2018-01-03T06:37:54.297Z,956.71
2018-01-03T06:38:54.246Z,956.64
2018-01-03T06:39:54.202Z,956.39
2018-01-03T06:40:54.135Z,956.25
2018-01-03T06:41:54.098Z,956.05
2018-01-03T06:42:54.069Z,956.43
2018-01-03T06:43:54.013Z,956.62
2018-01-03T06:44:53.951Z,956.44
2018-01-03T06:45:53.927Z,956.21
2018-01-03T06:46:53.885Z,956.17
2018-01-03T06:47:53.837Z,955.99
2018-01-03T06:48:53.788Z,955.80
2018-01-03T06:49:53.746Z,955.89
2018-01-03T06:50:53.688Z,955.92
2018-01-03T06:51:53.671Z,955.85
2018-01-03T06:52:53.605Z,955.79
2018-01-03T06:53:53.580Z,955.73
2018-01-03T06:54:53.533Z,955.90
2018-01-03T06:55:53.480Z,955.91
2018-01-03T06:56:53.440Z,955.90
2018-01-03T06:57:53.424Z,955.78
2018-01-03T06:58:53.402Z,955.70
2018-01-03T06:59:53.329Z,955.74
2018-01-03T07:00:54.193Z,955.80
2018-01-03T07:01:53.209Z,955.62
2018-01-03T07:02:53.179Z,955.49
2018-01-03T07:03:53.134Z,955.62
2018-01-03T07:04:53.097Z,955.55
2018-01-03T07:05:53.050Z,955.43
2018-01-03T07:06:53.000Z,955.21
2018-01-03T07:07:52.958Z,955.33
2018-01-03T07:08:52.926Z,955.21
2018-01-03T07:09:52.897Z,955.24
2018-01-03T07:10:52.831Z,955.19
2018-01-03T07:11:52.784Z,955.40
2018-01-03T07:12:52.740Z,955.61
2018-01-03T07:13:52.691Z,955.42
2018-01-03T07:14:52.665Z,955.45
2018-01-03T07:15:52.611Z,955.36
2018-01-03T07:16:52.566Z,955.36
2018-01-03T07:17:52.518Z,955.36
2018-01-03T07:18:52.558Z,955.63
2018-01-03T07:19:52.426Z,955.73
2018-01-03T07:20:52.398Z,955.69
2018-01-03T07:21:52.375Z,955.75
2018-01-03T07:22:52.298Z,955.71
2018-01-03T07:23:52.258Z,955.74
2018-01-03T07:24:52.217Z,955.71
2018-01-03T07:25:52.177Z,955.76
2018-01-03T07:26:52.125Z,955.73
2018-01-03T07:27:52.087Z,955.77
2018-01-03T07:28:52.046Z,955.80
2018-01-03T07:29:52.019Z,955.93
2018-01-03T07:30:51.963Z,956.00
2018-01-03T07:31:51.912Z,955.93
2018-01-03T07:32:51.881Z,955.93
2018-01-03T07:33:51.829Z,955.99
2018-01-03T07:34:51.794Z,955.97
2018-01-03T07:35:51.747Z,956.05
2018-01-03T07:36:51.714Z,956.00
2018-01-03T07:37:51.653Z,956.00
2018-01-03T07:38:51.609Z,956.16
2018-01-03T07:39:51.568Z,956.21
2018-01-03T07:40:51.518Z,956.25
2018-01-03T07:41:51.479Z,956.43
2018-01-03T07:42:51.448Z,956.39
2018-01-03T07:43:51.393Z,956.26
2018-01-03T07:44:51.393Z,956.30
2018-01-03T07:45:51.313Z,956.29
2018-01-03T07:46:51.289Z,956.34
2018-01-03T07:47:51.242Z,956.45
2018-01-03T07:48:51.202Z,956.35
2018-01-03T07:49:51.133Z,956.35
2018-01-03T07:50:51.099Z,956.32
2018-01-03T07:51:51.049Z,956.18
2018-01-03T07:52:51.022Z,956.25
2018-01-03T07:53:50.965Z,956.13
2018-01-03T07:54:50.929Z,956.10
2018-01-03T07:55:50.880Z,956.04
2018-01-03T07:56:50.865Z,955.87
2018-01-03T07:57:50.931Z,955.69
2018-01-03T07:58:50.756Z,955.65
2018-01-03T07:59:50.737Z,955.61
2018-01-03T08:00:50.700Z,955.52
2018-01-03T08:01:50.629Z,955.41
2018-01-03T08:02:50.580Z,955.53
2018-01-03T08:03:50.542Z,955.62
2018-01-03T08:04:50.509Z,955.63
2018-01-03T08:05:50.463Z,955.68
2018-01-03T08:06:50.429Z,955.68
2018-01-03T08:07:50.384Z,955.68
2018-01-03T08:08:50.342Z,955.72
2018-01-03T08:09:50.294Z,955.77
2018-01-03T08:10:50.248Z,955.81
2018-01-03T08:11:50.231Z,955.83
2018-01-03T08:12:50.171Z,955.65
2018-01-03T08:13:50.126Z,955.64
2018-01-03T08:14:50.096Z,955.57
2018-01-03T08:15:50.130Z,955.48
2018-01-03T08:16:50.012Z,955.46
2018-01-03T08:17:49.955Z,955.45
2018-01-03T08:18:49.904Z,955.47
2018-01-03T08:19:49.864Z,955.38
2018-01-03T08:20:49.810Z,955.32
2018-01-03T08:21:49.761Z,955.30
2018-01-03T08:22:49.737Z,955.23
2018-01-03T08:23:49.720Z,955.21
2018-01-03T08:24:49.647Z,955.16
2018-01-03T08:25:49.616Z,955.17
2018-01-03T08:26:49.580Z,955.23
2018-01-03T08:27:49.517Z,955.27
2018-01-03T08:28:49.477Z,955.20
2018-01-03T08:29:49.450Z,955.28
2018-01-03T08:30:49.405Z,955.21
2018-01-03T08:31:49.364Z,955.20
2018-01-03T08:32:49.320Z,955.14
2018-01-03T08:33:49.277Z,955.12
2018-01-03T08:34:49.226Z,955.08
2018-01-03T08:35:49.200Z,955.03
2018-01-03T08:36:49.131Z,955.00
2018-01-03T08:37:49.131Z,954.94
2018-01-03T08:38:49.052Z,955.03
2018-01-03T08:39:49.044Z,954.97
2018-01-03T08:40:48.979Z,955.05
2018-01-03T08:41:49.349Z,955.01
2018-01-03T08:42:48.900Z,954.89
2018-01-03T08:43:48.868Z,954.94
2018-01-03T08:44:48.792Z,955.07
2018-01-03T08:45:48.758Z,955.03
2018-01-03T08:46:48.759Z,955.13
2018-01-03T08:47:48.694Z,955.37
2018-01-03T08:48:48.720Z,955.55
2018-01-03T08:49:48.599Z,955.73
2018-01-03T08:50:48.559Z,955.77
2018-01-03T08:51:48.509Z,955.84
2018-01-03T08:52:48.466Z,955.84
2018-01-03T08:53:48.422Z,955.83
2018-01-03T08:54:48.388Z,955.78
2018-01-03T08:55:48.334Z,955.69
2018-01-03T08:56:48.294Z,955.64
2018-01-03T08:57:48.281Z,955.55
2018-01-03T08:58:48.207Z,955.56
2018-01-03T08:59:48.166Z,955.53
2018-01-03T09:00:48.123Z,955.61
2018-01-03T09:01:48.100Z,955.53
2018-01-03T09:02:48.051Z,955.44
2018-01-03T09:03:48.004Z,955.40
2018-01-03T09:04:47.946Z,955.39
2018-01-03T09:05:47.950Z,955.51
2018-01-03T09:06:47.885Z,955.55
2018-01-03T09:07:47.831Z,955.62
2018-01-03T09:08:47.838Z,955.66
2018-01-03T09:09:47.756Z,955.68
2018-01-03T09:10:47.706Z,955.56
2018-01-03T09:11:47.660Z,955.51
2018-01-03T09:12:47.688Z,955.34
2018-01-03T09:13:47.619Z,955.25
2018-01-03T09:14:47.532Z,955.23
2018-01-03T09:15:47.494Z,955.30
2018-01-03T09:16:47.445Z,955.31
2018-01-03T09:17:47.405Z,955.37
2018-01-03T09:18:47.356Z,955.30
2018-01-03T09:19:47.315Z,955.41
2018-01-03T09:20:47.280Z,955.38
2018-01-03T09:21:47.247Z,955.38
2018-01-03T09:22:47.193Z,955.39
2018-01-03T09:23:47.141Z,955.34
2018-01-03T09:24:47.086Z,955.38
2018-01-03T09:25:47.078Z,955.48
2018-01-03T09:26:47.020Z,955.61
2018-01-03T09:27:46.985Z,955.59
2018-01-03T09:28:46.923Z,955.62
2018-01-03T09:29:46.902Z,955.59
2018-01-03T09:30:46.870Z,955.70
2018-01-03T09:31:46.818Z,955.72
2018-01-03T09:32:46.753Z,955.77
2018-01-03T09:33:46.743Z,955.72
2018-01-03T09:34:46.678Z,955.73
2018-01-03T09:35:46.671Z,955.76
2018-01-03T09:36:46.596Z,955.79
2018-01-03T09:37:46.565Z,955.69
2018-01-03T09:38:46.512Z,955.64
2018-01-03T09:39:46.468Z,955.57
2018-01-03T09:40:46.442Z,955.54
2018-01-03T09:41:46.399Z,955.54
2018-01-03T09:42:46.362Z,955.59
2018-01-03T09:43:46.335Z,955.73
2018-01-03T09:44:46.271Z,955.69
2018-01-03T09:45:46.301Z,955.90
2018-01-03T09:46:46.180Z,955.95
2018-01-03T09:47:46.228Z,955.95
2018-01-03T09:48:46.113Z,955.92
2018-01-03T09:49:46.063Z,955.85
2018-01-03T09:50:46.031Z,955.96
2018-01-03T09:51:46.011Z,955.99
2018-01-03T09:52:45.972Z,956.06
2018-01-03T09:53:45.913Z,955.90
2018-01-03T09:54:45.888Z,955.84
2018-01-03T09:55:45.862Z,955.90
2018-01-03T09:56:45.827Z,955.76
2018-01-03T09:57:45.885Z,955.66
2018-01-03T09:58:45.767Z,955.57
2018-01-03T09:59:45.732Z,955.48
2018-01-03T10:00:45.704Z,955.42
2018-01-03T10:01:45.656Z,955.47
2018-01-03T10:02:45.625Z,955.52
2018-01-03T10:03:45.602Z,955.53
2018-01-03T10:04:45.564Z,955.50
2018-01-03T10:05:45.559Z,955.54
2018-01-03T10:06:45.514Z,955.63
2018-01-03T10:07:45.458Z,955.50
2018-01-03T10:08:45.432Z,955.46
2018-01-03T10:09:45.419Z,955.49
2018-01-03T10:10:45.387Z,955.42
2018-01-03T10:11:45.360Z,955.34
2018-01-03T10:12:45.343Z,955.25
2018-01-03T10:13:45.280Z,955.41
2018-01-03T10:14:45.245Z,955.49
2018-01-03T10:15:45.231Z,955.58
2018-01-03T10:16:45.195Z,955.59
2018-01-03T10:17:45.153Z,955.59
2018-01-03T10:18:45.132Z,955.56
2018-01-03T10:19:45.106Z,955.66
2018-01-03T10:20:45.072Z,955.67
2018-01-03T10:21:45.036Z,955.74
2018-01-03T10:22:44.993Z,955.76
2018-01-03T10:23:44.981Z,955.84
2018-01-03T10:24:44.935Z,955.82
2018-01-03T10:25:44.905Z,955.80
2018-01-03T10:26:44.859Z,955.84
2018-01-03T10:27:44.861Z,955.79
2018-01-03T10:28:44.797Z,955.73
2018-01-03T10:29:44.779Z,955.79
2018-01-03T10:30:44.732Z,955.75
2018-01-03T10:31:44.685Z,955.78
2018-01-03T10:32:44.649Z,955.76
2018-01-03T10:33:44.614Z,955.78
2018-01-03T10:34:44.575Z,955.70
2018-01-03T10:35:44.552Z,955.76
2018-01-03T10:36:44.494Z,955.75
2018-01-03T10:37:44.477Z,955.80
2018-01-03T10:38:44.434Z,955.73
2018-01-03T10:39:44.392Z,955.77
2018-01-03T10:40:44.365Z,955.85
2018-01-03T10:41:44.320Z,955.72
2018-01-03T10:42:44.315Z,955.78
2018-01-03T10:43:44.268Z,955.80
2018-01-03T10:44:44.214Z,955.81
2018-01-03T10:45:44.176Z,955.84
2018-01-03T10:46:44.150Z,955.88
2018-01-03T10:47:44.082Z,955.81
2018-01-03T10:48:44.055Z,955.78
2018-01-03T10:49:44.024Z,955.83
2018-01-03T10:50:43.986Z,955.73
2018-01-03T10:51:43.938Z,955.68
2018-01-03T10:52:43.912Z,955.61
2018-01-03T10:53:43.889Z,955.58
2018-01-03T10:54:43.808Z,955.51
2018-01-03T10:55:43.785Z,955.50
2018-01-03T10:56:43.775Z,955.41
2018-01-03T10:57:43.705Z,955.45
2018-01-03T10:58:43.694Z,955.52
2018-01-03T10:59:43.633Z,955.56
2018-01-03T11:00:43.605Z,955.63
2018-01-03T11:01:43.559Z,955.68
2018-01-03T11:02:43.562Z,955.56
2018-01-03T11:03:43.494Z,955.71
2018-01-03T11:04:43.469Z,955.90
2018-01-03T11:05:43.411Z,955.78
2018-01-03T11:06:43.359Z,955.79
2018-01-03T11:07:43.325Z,955.94
2018-01-03T11:08:43.290Z,955.86
2018-01-03T11:09:43.255Z,956.09
2018-01-03T11:10:43.217Z,956.60
2018-01-03T11:11:43.199Z,956.99
2018-01-03T11:12:43.154Z,957.48
2018-01-03T11:13:43.100Z,957.39
2018-01-03T11:14:43.068Z,957.15
2018-01-03T11:15:43.033Z,957.12
2018-01-03T11:16:43.094Z,957.21
2018-01-03T11:17:42.956Z,957.24
2018-01-03T11:18:42.920Z,957.37
2018-01-03T11:19:42.971Z,957.34
2018-01-03T11:20:49.362Z,957.34
2018-01-03T11:23:16.315Z,957.32
2018-01-03T11:24:15.967Z,957.21
2018-01-03T11:26:08.988Z,957.30
2018-01-03T11:27:08.925Z,957.17
2018-01-03T11:28:08.866Z,957.21
2018-01-03T11:29:08.857Z,957.39
2018-01-03T11:30:08.797Z,957.27
2018-01-03T11:31:08.996Z,957.32
2018-01-03T11:32:08.702Z,957.26
2018-01-03T11:33:08.650Z,957.29
2018-01-03T11:34:08.605Z,957.39
2018-01-03T11:35:08.562Z,957.41
2018-01-03T11:36:08.571Z,957.59
2018-01-03T11:37:08.499Z,957.50
2018-01-03T11:38:08.544Z,957.52
2018-01-03T11:39:08.429Z,957.52
2018-01-03T11:40:08.351Z,957.61
2018-01-03T11:41:08.313Z,957.56
2018-01-03T11:42:08.301Z,957.58
2018-01-03T11:43:08.226Z,957.55
2018-01-03T11:44:08.189Z,957.60
2018-01-03T11:45:08.139Z,957.61
2018-01-03T11:46:08.107Z,957.72
2018-01-03T11:47:08.050Z,957.87
2018-01-03T11:48:08.037Z,957.81
2018-01-03T11:49:07.978Z,957.90
2018-01-03T11:50:07.918Z,957.86
2018-01-03T11:51:07.908Z,957.82
2018-01-03T11:52:07.857Z,957.77
2018-01-03T11:53:07.821Z,957.99
2018-01-03T11:54:07.753Z,957.82
2018-01-03T11:55:07.726Z,957.94
2018-01-03T11:56:07.666Z,957.96
2018-01-03T11:57:07.650Z,957.95
2018-01-03T11:58:07.588Z,957.93
2018-01-03T11:59:07.551Z,958.00
2018-01-03T12:00:07.496Z,957.93
2018-01-03T12:01:07.448Z,958.00
2018-01-03T12:02:07.487Z,958.01
2018-01-03T12:03:07.364Z,958.13
2018-01-03T12:04:07.315Z,958.14
2018-01-03T12:05:07.277Z,958.07
2018-01-03T12:06:07.237Z,958.13
2018-01-03T12:07:07.197Z,958.15
2018-01-03T12:08:07.149Z,958.13
2018-01-03T12:09:07.110Z,958.10
2018-01-03T12:10:07.052Z,958.13
2018-01-03T12:11:07.050Z,958.09
2018-01-03T12:12:06.995Z,958.18
2018-01-03T12:13:06.936Z,958.15
2018-01-03T12:14:06.883Z,958.13
2018-01-03T12:15:06.853Z,958.10
2018-01-03T12:16:06.802Z,958.15
2018-01-03T12:17:06.761Z,958.13
2018-01-03T12:18:06.735Z,958.18
2018-01-03T12:19:06.670Z,958.22
2018-01-03T12:20:06.629Z,958.24
2018-01-03T12:21:06.595Z,958.28
2018-01-03T12:22:06.538Z,958.25
2018-01-03T12:23:06.497Z,958.36
2018-01-03T12:24:06.463Z,958.32
2018-01-03T12:25:06.413Z,958.35
2018-01-03T12:26:06.381Z,958.40
2018-01-03T12:27:06.326Z,958.41
2018-01-03T12:28:06.281Z,958.44
2018-01-03T12:29:06.257Z,958.42
2018-01-03T12:30:06.185Z,958.43